createdAt,value
2019-03-29T00:00:26.105Z,2.45
2019-03-29T00:02:57.068Z,2.42
2019-03-29T00:05:27.788Z,2.41
2019-03-29T00:07:58.624Z,2.38
2019-03-29T00:10:29.867Z,2.37
2019-03-29T00:13:00.603Z,2.36
2019-03-29T00:15:31.637Z,2.36
2019-03-29T00:18:02.328Z,2.36
2019-03-29T00:20:33.292Z,2.38
2019-03-29T00:23:04.329Z,2.39
2019-03-29T00:25:35.893Z,2.40
2019-03-29T00:28:06.957Z,2.40
2019-03-29T00:30:37.415Z,2.42
2019-03-29T00:33:07.900Z,2.43
2019-03-29T00:35:38.460Z,2.47
2019-03-29T00:38:09.242Z,2.50
2019-03-29T00:40:40.202Z,2.50
2019-03-29T00:43:10.823Z,2.49
2019-03-29T00:45:42.288Z,2.44
2019-03-29T00:48:12.931Z,2.39
2019-03-29T00:50:43.961Z,2.35
2019-03-29T00:53:14.586Z,2.29
2019-03-29T00:55:45.469Z,2.25
2019-03-29T00:58:17.208Z,2.21
2019-03-29T01:00:47.482Z,2.17
2019-03-29T01:03:18.341Z,2.15
2019-03-29T01:05:48.872Z,2.12
2019-03-29T01:08:19.765Z,2.11
2019-03-29T01:10:50.408Z,2.10
2019-03-29T01:13:20.974Z,2.12
2019-03-29T01:15:51.924Z,2.17
2019-03-29T01:18:23.064Z,2.20
2019-03-29T01:20:53.722Z,2.27
2019-03-29T01:23:24.393Z,2.33
2019-03-29T01:25:54.982Z,2.39
2019-03-29T01:28:25.618Z,2.46
2019-03-29T01:30:56.222Z,2.48
2019-03-29T01:33:26.802Z,2.52
2019-03-29T01:35:57.695Z,2.54
2019-03-29T01:38:28.242Z,2.54
2019-03-29T01:40:59.060Z,2.54
2019-03-29T01:43:29.705Z,2.51
2019-03-29T01:46:01.094Z,2.51
2019-03-29T01:48:31.614Z,2.50
2019-03-29T01:51:02.326Z,2.47
2019-03-29T01:53:33.186Z,2.44
2019-03-29T01:56:03.714Z,2.42
2019-03-29T01:58:34.550Z,2.39
2019-03-29T02:01:05.192Z,2.33
2019-03-29T02:03:36.039Z,2.28
2019-03-29T02:06:06.858Z,2.24
2019-03-29T02:08:37.933Z,2.20
2019-03-29T02:11:08.836Z,2.18
2019-03-29T02:13:39.542Z,2.16
2019-03-29T02:16:10.139Z,2.16
2019-03-29T02:18:40.964Z,2.18
2019-03-29T02:21:12.345Z,2.19
2019-03-29T02:23:43.066Z,2.19
2019-03-29T02:26:13.775Z,2.21
2019-03-29T02:28:44.983Z,2.22
2019-03-29T02:31:16.392Z,2.23
2019-03-29T02:33:48.558Z,2.25
2019-03-29T02:36:19.295Z,2.26
2019-03-29T02:38:55.783Z,2.27
2019-03-29T02:41:22.440Z,2.27
2019-03-29T02:43:53.316Z,2.28
2019-03-29T02:46:25.688Z,2.28
2019-03-29T02:48:57.329Z,2.29
2019-03-29T02:51:28.287Z,2.33
2019-03-29T02:53:58.904Z,2.36
2019-03-29T02:56:29.760Z,2.37
2019-03-29T02:59:00.415Z,2.38
2019-03-29T03:01:31.163Z,2.39
2019-03-29T03:04:02.722Z,2.41
2019-03-29T03:06:33.701Z,2.43
2019-03-29T03:09:13.702Z,2.48
2019-03-29T03:11:38.640Z,2.47
2019-03-29T03:14:09.349Z,2.49
2019-03-29T03:16:39.817Z,2.51
2019-03-29T03:19:10.529Z,2.51
2019-03-29T03:21:41.576Z,2.50
2019-03-29T03:24:12.152Z,2.53
2019-03-29T03:26:42.962Z,2.51
2019-03-29T03:29:13.659Z,2.56
2019-03-29T03:31:44.423Z,2.58
2019-03-29T03:34:15.533Z,2.59
2019-03-29T03:36:46.089Z,2.61
2019-03-29T03:39:30.683Z,2.63
2019-03-29T03:41:49.811Z,2.64
2019-03-29T03:44:20.844Z,2.60
2019-03-29T03:46:52.159Z,2.63
2019-03-29T03:49:22.841Z,2.67
2019-03-29T03:51:53.476Z,2.70
2019-03-29T03:54:24.450Z,2.74
2019-03-29T03:56:55.756Z,2.75
2019-03-29T03:59:26.346Z,2.70
2019-03-29T04:01:56.972Z,2.74
2019-03-29T04:04:27.497Z,2.80
2019-03-29T04:06:58.745Z,2.87
2019-03-29T04:09:48.102Z,2.96
2019-03-29T04:12:02.488Z,3.02
2019-03-29T04:14:33.367Z,3.07
2019-03-29T04:17:04.095Z,3.12
2019-03-29T04:19:34.913Z,3.16
2019-03-29T04:22:05.962Z,3.23
2019-03-29T04:24:36.595Z,3.28
2019-03-29T04:27:07.274Z,3.34
2019-03-29T04:29:38.046Z,3.37
2019-03-29T04:32:08.701Z,3.36
2019-03-29T04:34:40.100Z,3.39
2019-03-29T04:37:11.374Z,3.46
2019-03-29T04:39:42.169Z,3.46
2019-03-29T04:42:13.455Z,3.51
2019-03-29T04:44:44.079Z,3.55
2019-03-29T04:47:14.771Z,3.59
2019-03-29T04:49:45.916Z,3.62
2019-03-29T04:52:16.624Z,3.71
2019-03-29T04:54:47.551Z,3.78
2019-03-29T04:57:18.116Z,3.83
2019-03-29T04:59:49.203Z,3.82
2019-03-29T05:02:21.901Z,3.89
2019-03-29T05:04:52.629Z,3.89
2019-03-29T05:07:24.544Z,3.91
2019-03-29T05:09:55.256Z,3.96
2019-03-29T05:12:27.434Z,3.98
2019-03-29T05:14:58.156Z,4.00
2019-03-29T05:17:29.550Z,3.97
2019-03-29T05:20:00.367Z,3.96
2019-03-29T05:22:31.304Z,3.89
2019-03-29T05:25:02.089Z,3.83
2019-03-29T05:27:36.220Z,3.87
2019-03-29T05:30:07.440Z,3.90
2019-03-29T05:32:39.527Z,3.89
2019-03-29T05:35:10.505Z,3.73
2019-03-29T05:37:41.342Z,3.64
2019-03-29T05:40:12.445Z,3.61
2019-03-29T05:42:43.523Z,3.60
2019-03-29T05:45:14.534Z,3.60
2019-03-29T05:47:45.425Z,3.54
2019-03-29T05:50:16.190Z,3.45
2019-03-29T05:52:47.168Z,3.37
2019-03-29T05:55:18.727Z,3.34
2019-03-29T05:57:49.624Z,3.38
2019-03-29T06:00:20.645Z,3.44
2019-03-29T06:02:51.336Z,3.45
2019-03-29T06:05:22.128Z,3.49
2019-03-29T06:07:53.134Z,3.53
2019-03-29T06:10:24.134Z,3.54
2019-03-29T06:12:55.320Z,3.52
2019-03-29T06:15:26.473Z,3.49
2019-03-29T06:17:57.399Z,3.55
2019-03-29T06:20:28.271Z,3.57
2019-03-29T06:22:59.013Z,3.53
2019-03-29T06:25:30.325Z,3.53
2019-03-29T06:28:01.119Z,3.60
2019-03-29T06:30:32.861Z,3.65
2019-03-29T06:33:03.847Z,3.66
2019-03-29T06:35:37.730Z,3.62
2019-03-29T06:38:09.184Z,3.63
2019-03-29T06:40:40.181Z,3.70
2019-03-29T06:43:10.980Z,3.75
2019-03-29T06:45:48.257Z,3.80
2019-03-29T06:48:15.214Z,3.81
2019-03-29T06:50:46.465Z,3.86
2019-03-29T06:53:17.552Z,3.89
2019-03-29T06:55:48.700Z,3.79
2019-03-29T06:58:19.456Z,3.73
2019-03-29T07:00:51.350Z,3.76
2019-03-29T07:03:22.497Z,3.78
2019-03-29T07:05:53.121Z,3.73
2019-03-29T07:08:23.944Z,3.67
2019-03-29T07:10:54.950Z,3.56
2019-03-29T07:13:25.926Z,3.48
2019-03-29T07:15:56.800Z,3.41
2019-03-29T07:18:27.488Z,3.40
2019-03-29T07:20:59.380Z,3.41
2019-03-29T07:23:30.080Z,3.45
2019-03-29T07:26:03.808Z,3.48
2019-03-29T07:28:34.766Z,3.50
2019-03-29T07:31:06.585Z,3.53
2019-03-29T07:33:37.274Z,3.67
2019-03-29T07:36:08.184Z,3.69
2019-03-29T07:38:38.944Z,3.71
2019-03-29T07:41:09.732Z,3.78
2019-03-29T07:43:40.539Z,3.87
2019-03-29T07:46:13.111Z,3.91
2019-03-29T07:48:46.444Z,3.96
2019-03-29T07:51:17.472Z,4.00
2019-03-29T07:53:48.742Z,4.07
2019-03-29T07:56:19.826Z,4.09
2019-03-29T07:58:50.449Z,4.06
2019-03-29T08:01:21.275Z,4.05
2019-03-29T08:03:53.539Z,4.12
2019-03-29T08:06:24.225Z,4.22
2019-03-29T08:08:55.260Z,4.31
2019-03-29T08:11:26.818Z,4.39
2019-03-29T08:13:58.740Z,4.40
2019-03-29T08:16:29.558Z,4.45
2019-03-29T08:19:00.651Z,4.55
2019-03-29T08:21:31.615Z,4.54
2019-03-29T08:24:02.962Z,4.47
2019-03-29T08:26:34.323Z,4.43
2019-03-29T08:29:05.236Z,4.50
2019-03-29T08:31:36.105Z,4.57
2019-03-29T08:34:09.689Z,4.61
2019-03-29T08:36:40.384Z,4.77
2019-03-29T08:39:11.627Z,4.93
2019-03-29T08:41:42.272Z,5.08
2019-03-29T08:44:13.177Z,5.23
2019-03-29T08:46:44.333Z,5.45
2019-03-29T08:49:16.793Z,5.57
2019-03-29T08:51:47.691Z,5.68
2019-03-29T08:54:18.597Z,5.76
2019-03-29T08:56:49.556Z,5.85
2019-03-29T08:59:21.259Z,5.83
2019-03-29T09:01:53.064Z,5.71
2019-03-29T09:04:24.164Z,5.60
2019-03-29T09:06:55.184Z,5.55
2019-03-29T09:09:26.555Z,5.57
2019-03-29T09:11:57.721Z,5.61
2019-03-29T09:14:31.244Z,5.69
2019-03-29T09:17:01.049Z,5.77
2019-03-29T09:19:31.754Z,5.84
2019-03-29T09:22:02.195Z,5.96
2019-03-29T09:24:33.531Z,6.16
2019-03-29T09:27:04.416Z,6.30
2019-03-29T09:29:35.093Z,6.35
2019-03-29T09:32:05.783Z,6.47
2019-03-29T09:34:38.827Z,6.59
2019-03-29T09:37:09.490Z,6.68
2019-03-29T09:39:40.307Z,6.62
2019-03-29T09:42:11.518Z,6.49
2019-03-29T09:44:42.454Z,6.34
2019-03-29T09:47:13.612Z,6.22
2019-03-29T09:49:44.281Z,6.19
2019-03-29T09:52:15.729Z,6.19
2019-03-29T09:54:46.685Z,6.20
2019-03-29T09:57:17.777Z,6.25
2019-03-29T09:59:48.751Z,6.29
2019-03-29T10:02:19.447Z,6.34
2019-03-29T10:04:50.686Z,6.41
2019-03-29T10:07:21.915Z,6.56
2019-03-29T10:09:52.410Z,6.68
2019-03-29T10:12:23.081Z,6.74
2019-03-29T10:14:53.743Z,6.77
2019-03-29T10:17:25.695Z,6.80
2019-03-29T10:19:56.549Z,6.83
2019-03-29T10:22:27.277Z,6.86
2019-03-29T10:24:57.933Z,6.90
2019-03-29T10:27:28.740Z,7.05
2019-03-29T10:29:59.838Z,7.09
2019-03-29T10:32:31.141Z,7.17
2019-03-29T10:35:02.130Z,7.27
2019-03-29T10:37:33.155Z,7.40
2019-03-29T10:40:04.024Z,7.36
2019-03-29T10:42:34.867Z,7.18
2019-03-29T10:45:06.567Z,7.04
2019-03-29T10:47:43.819Z,6.91
2019-03-29T10:50:10.000Z,6.71
2019-03-29T10:52:40.738Z,6.54
2019-03-29T10:55:11.439Z,6.38
2019-03-29T10:57:42.181Z,6.31
2019-03-29T11:00:17.609Z,6.28
2019-03-29T11:02:48.442Z,6.29
2019-03-29T11:05:19.570Z,6.35
2019-03-29T11:07:51.161Z,6.42
2019-03-29T11:10:30.220Z,6.46
2019-03-29T11:13:12.550Z,6.40
2019-03-29T11:15:34.425Z,6.44
2019-03-29T11:18:05.667Z,6.46
2019-03-29T11:20:36.721Z,6.48
2019-03-29T11:23:07.918Z,6.48
2019-03-29T11:25:38.584Z,6.55
2019-03-29T11:28:09.869Z,6.60
2019-03-29T11:30:42.953Z,6.68
2019-03-29T11:33:13.268Z,6.57
2019-03-29T11:35:44.361Z,6.44
2019-03-29T11:38:15.343Z,6.41
2019-03-29T11:40:46.464Z,6.48
2019-03-29T11:43:26.458Z,6.58
2019-03-29T11:45:50.261Z,6.69
2019-03-29T11:48:21.547Z,6.69
2019-03-29T11:50:52.650Z,6.68
2019-03-29T11:53:23.325Z,6.60
2019-03-29T11:55:55.361Z,6.57
2019-03-29T11:58:26.235Z,6.59
2019-03-29T12:00:57.424Z,6.59
2019-03-29T12:03:29.780Z,6.64
2019-03-29T12:06:00.922Z,6.68
2019-03-29T12:08:32.429Z,6.68
2019-03-29T12:11:03.423Z,6.63
2019-03-29T12:13:41.044Z,6.63
2019-03-29T12:16:07.465Z,6.62
2019-03-29T12:18:38.225Z,6.62
2019-03-29T12:21:09.076Z,6.58
2019-03-29T12:23:40.073Z,6.52
2019-03-29T12:26:14.776Z,6.33
2019-03-29T12:28:46.166Z,6.21
2019-03-29T12:31:17.449Z,6.15
2019-03-29T12:33:48.314Z,6.12
2019-03-29T12:36:19.206Z,6.06
2019-03-29T12:38:50.133Z,6.05
2019-03-29T12:41:20.884Z,6.10
2019-03-29T12:43:55.679Z,6.08
2019-03-29T12:46:24.664Z,6.06
2019-03-29T12:48:55.782Z,6.00
2019-03-29T12:51:26.697Z,5.95
2019-03-29T12:53:57.577Z,5.91
2019-03-29T12:56:28.147Z,5.86
2019-03-29T12:58:58.907Z,5.83
2019-03-29T13:01:39.187Z,5.83
2019-03-29T13:04:02.085Z,5.85
2019-03-29T13:06:33.027Z,5.88
2019-03-29T13:09:04.972Z,5.89
2019-03-29T13:11:35.839Z,5.84
2019-03-29T13:14:10.632Z,5.81
2019-03-29T13:16:39.462Z,5.78
2019-03-29T13:19:10.166Z,5.68
2019-03-29T13:21:40.884Z,5.64
2019-03-29T13:24:15.712Z,5.66
2019-03-29T13:26:44.692Z,5.67
2019-03-29T13:29:15.455Z,5.65
2019-03-29T13:31:46.585Z,5.69
2019-03-29T13:34:19.756Z,5.74
2019-03-29T13:36:50.702Z,5.75
2019-03-29T13:39:21.755Z,5.76
2019-03-29T13:41:52.484Z,5.75
2019-03-29T13:44:24.473Z,5.74
2019-03-29T13:46:55.790Z,5.76
2019-03-29T13:49:26.521Z,5.78
2019-03-29T13:51:57.420Z,5.77
2019-03-29T13:54:28.332Z,5.81
2019-03-29T13:56:59.584Z,5.79
2019-03-29T13:59:32.008Z,5.78
2019-03-29T14:02:02.941Z,5.79
2019-03-29T14:04:33.792Z,5.81
2019-03-29T14:07:05.044Z,5.79
2019-03-29T14:09:35.603Z,5.77
2019-03-29T14:12:06.951Z,5.73
2019-03-29T14:14:38.834Z,5.72
2019-03-29T14:17:09.835Z,5.71
2019-03-29T14:19:40.752Z,5.68
2019-03-29T14:22:11.472Z,5.68
2019-03-29T14:24:42.275Z,5.67
2019-03-29T14:27:13.166Z,5.69
2019-03-29T14:29:43.933Z,5.71
2019-03-29T14:32:14.626Z,5.78
2019-03-29T14:34:45.554Z,5.82
2019-03-29T14:37:16.508Z,5.86
2019-03-29T14:39:46.811Z,5.93
2019-03-29T14:42:17.843Z,5.99
2019-03-29T14:44:52.608Z,6.01
2019-03-29T14:47:21.406Z,6.00
2019-03-29T14:49:51.883Z,6.01
2019-03-29T14:52:23.096Z,5.99
2019-03-29T14:54:54.168Z,5.98
2019-03-29T14:57:24.913Z,5.98
2019-03-29T14:59:55.710Z,5.98
2019-03-29T15:02:26.704Z,5.95
2019-03-29T15:04:58.537Z,5.94
2019-03-29T15:07:30.501Z,5.90
2019-03-29T15:10:01.689Z,5.90
2019-03-29T15:12:32.969Z,5.90
2019-03-29T15:15:06.302Z,5.85
2019-03-29T15:17:37.431Z,5.79
2019-03-29T15:20:08.684Z,5.74
2019-03-29T15:22:39.461Z,5.75
2019-03-29T15:25:10.279Z,5.77
2019-03-29T15:27:41.169Z,5.79
2019-03-29T15:30:12.559Z,5.84
2019-03-29T15:32:43.010Z,5.88
2019-03-29T15:35:14.179Z,5.95
2019-03-29T15:37:47.983Z,6.01
2019-03-29T15:40:19.014Z,6.06
2019-03-29T15:42:51.814Z,6.12
2019-03-29T15:45:22.741Z,6.17
2019-03-29T15:47:57.165Z,6.21
2019-03-29T15:50:27.672Z,6.22
2019-03-29T15:52:59.189Z,6.17
2019-03-29T15:55:30.089Z,6.12
2019-03-29T15:58:00.885Z,6.09
2019-03-29T16:00:31.682Z,6.07
2019-03-29T16:03:02.951Z,6.06
2019-03-29T16:05:33.682Z,6.05
2019-03-29T16:08:04.184Z,6.04
2019-03-29T16:10:35.463Z,6.00
2019-03-29T16:13:06.271Z,6.00
2019-03-29T16:15:38.530Z,5.97
2019-03-29T16:18:09.938Z,5.96
2019-03-29T16:20:41.562Z,5.98
2019-03-29T16:23:12.815Z,5.97
2019-03-29T16:25:44.036Z,5.98
2019-03-29T16:28:15.040Z,5.99
2019-03-29T16:30:46.534Z,5.99
2019-03-29T16:33:17.464Z,5.99
2019-03-29T16:35:51.634Z,5.97
2019-03-29T16:38:22.653Z,5.91
2019-03-29T16:40:53.824Z,5.88
2019-03-29T16:43:24.867Z,5.91
2019-03-29T16:45:55.800Z,5.93
2019-03-29T16:48:26.881Z,5.92
2019-03-29T16:50:57.697Z,5.89
2019-03-29T16:53:28.638Z,5.87
2019-03-29T16:55:59.570Z,5.85
2019-03-29T16:58:30.108Z,5.84
2019-03-29T17:01:00.677Z,5.81
2019-03-29T17:03:31.796Z,5.78
2019-03-29T17:06:02.650Z,5.76
2019-03-29T17:08:33.572Z,5.76
2019-03-29T17:11:04.771Z,5.73
2019-03-29T17:13:35.386Z,5.73
2019-03-29T17:16:06.288Z,5.76
2019-03-29T17:18:40.007Z,5.79
2019-03-29T17:21:10.620Z,5.82
2019-03-29T17:23:43.706Z,5.85
2019-03-29T17:26:16.080Z,5.86
2019-03-29T17:28:46.787Z,5.87
2019-03-29T17:31:18.124Z,5.91
2019-03-29T17:33:49.140Z,5.94
2019-03-29T17:36:19.861Z,5.98
2019-03-29T17:38:51.832Z,6.00
2019-03-29T17:41:22.470Z,6.01
2019-03-29T17:43:53.996Z,6.01
2019-03-29T17:46:24.829Z,6.04
2019-03-29T17:48:56.348Z,6.02
2019-03-29T17:51:27.413Z,6.04
2019-03-29T17:54:01.304Z,6.04
2019-03-29T17:56:32.432Z,6.04
2019-03-29T17:59:03.328Z,6.05
2019-03-29T18:01:33.999Z,6.06
2019-03-29T18:04:04.780Z,6.09
2019-03-29T18:06:35.549Z,6.11
2019-03-29T18:09:07.327Z,6.12
2019-03-29T18:11:38.517Z,6.13
2019-03-29T18:14:09.427Z,6.13
2019-03-29T18:16:40.344Z,6.14
2019-03-29T18:19:11.970Z,6.15
2019-03-29T18:21:44.328Z,6.14
2019-03-29T18:24:14.808Z,6.13
2019-03-29T18:26:45.559Z,6.12
2019-03-29T18:29:16.414Z,6.10
2019-03-29T18:31:47.484Z,6.11
2019-03-29T18:34:18.360Z,6.10
2019-03-29T18:36:49.906Z,6.09
2019-03-29T18:39:21.651Z,6.09
2019-03-29T18:41:52.354Z,6.07
2019-03-29T18:44:23.414Z,6.05
2019-03-29T18:46:54.199Z,6.02
2019-03-29T18:49:25.183Z,6.01
2019-03-29T18:51:55.628Z,5.99
2019-03-29T18:54:26.496Z,5.99
2019-03-29T18:56:57.388Z,6.02
2019-03-29T18:59:28.525Z,6.01
2019-03-29T19:01:59.764Z,5.98
2019-03-29T19:04:33.723Z,5.95
2019-03-29T19:07:04.408Z,5.96
2019-03-29T19:09:35.204Z,5.98
2019-03-29T19:12:05.993Z,5.98
2019-03-29T19:14:36.823Z,5.98
2019-03-29T19:17:09.801Z,5.96
2019-03-29T19:19:40.533Z,5.92
2019-03-29T19:22:11.688Z,5.86
2019-03-29T19:24:42.821Z,5.77
2019-03-29T19:27:13.587Z,5.65
2019-03-29T19:29:44.507Z,5.52
2019-03-29T19:32:15.292Z,5.41
2019-03-29T19:34:46.070Z,5.35
2019-03-29T19:37:17.528Z,5.31
2019-03-29T19:39:48.661Z,5.21
2019-03-29T19:42:19.552Z,5.14
2019-03-29T19:44:50.274Z,5.02
2019-03-29T19:47:20.629Z,4.93
2019-03-29T19:49:51.152Z,4.83
2019-03-29T19:52:24.994Z,4.78
2019-03-29T19:55:01.186Z,4.71
2019-03-29T19:57:34.303Z,4.65
2019-03-29T20:00:06.533Z,4.55
2019-03-29T20:02:37.775Z,4.47
2019-03-29T20:05:30.759Z,4.41
2019-03-29T20:08:01.654Z,4.36
2019-03-29T20:10:32.458Z,4.33
2019-03-29T20:13:03.811Z,4.32
2019-03-29T20:15:37.575Z,4.34
2019-03-29T20:18:08.547Z,4.39
2019-03-29T20:20:40.484Z,4.42
2019-03-29T20:23:11.235Z,4.44
2019-03-29T20:25:45.109Z,4.48
2019-03-29T20:28:15.977Z,4.49
2019-03-29T20:30:46.704Z,4.46
2019-03-29T20:33:19.795Z,4.42
2019-03-29T20:35:50.706Z,4.37
2019-03-29T20:38:23.284Z,4.32
2019-03-29T20:40:56.776Z,4.29
2019-03-29T20:43:28.102Z,4.26
2019-03-29T20:46:04.114Z,4.25
2019-03-29T20:48:46.268Z,4.25
2019-03-29T20:51:17.216Z,4.29
2019-03-29T20:53:48.465Z,4.39
2019-03-29T20:56:19.924Z,4.49
2019-03-29T20:58:50.750Z,4.55
2019-03-29T21:01:21.377Z,4.61
2019-03-29T21:03:52.339Z,4.63
2019-03-29T21:06:23.314Z,4.65
2019-03-29T21:08:54.262Z,4.66
2019-03-29T21:11:24.989Z,4.69
2019-03-29T21:13:57.391Z,4.70
2019-03-29T21:16:31.274Z,4.66
2019-03-29T21:19:02.298Z,4.60
2019-03-29T21:21:33.522Z,4.53
2019-03-29T21:24:04.902Z,4.47
2019-03-29T21:26:35.820Z,4.45
2019-03-29T21:29:06.576Z,4.45
2019-03-29T21:31:37.223Z,4.43
2019-03-29T21:34:08.188Z,4.36
2019-03-29T21:36:39.275Z,4.35
2019-03-29T21:39:12.991Z,4.36
2019-03-29T21:41:43.605Z,4.36
2019-03-29T21:44:14.076Z,4.42
2019-03-29T21:46:44.939Z,4.49
2019-03-29T21:49:15.833Z,4.55
2019-03-29T21:51:46.657Z,4.61
2019-03-29T21:54:20.109Z,4.66
2019-03-29T21:56:51.021Z,4.74
2019-03-29T21:59:21.510Z,4.79
2019-03-29T22:01:52.302Z,4.87
2019-03-29T22:04:22.803Z,4.92
2019-03-29T22:06:54.053Z,4.97
2019-03-29T22:09:36.399Z,5.02
2019-03-29T22:11:56.668Z,5.05
2019-03-29T22:14:27.451Z,5.07
2019-03-29T22:16:58.578Z,5.09
2019-03-29T22:19:29.540Z,5.12
2019-03-29T22:22:00.251Z,5.14
2019-03-29T22:24:30.863Z,5.14
2019-03-29T22:27:01.460Z,5.12
2019-03-29T22:29:32.253Z,5.14
2019-03-29T22:32:03.175Z,5.13
2019-03-29T22:34:34.148Z,5.15
2019-03-29T22:37:04.842Z,5.17
2019-03-29T22:39:35.533Z,5.19
2019-03-29T22:42:06.524Z,5.19
2019-03-29T22:44:37.047Z,5.22
2019-03-29T22:47:08.034Z,5.25
2019-03-29T22:49:38.802Z,5.27
2019-03-29T22:52:09.374Z,5.31
2019-03-29T22:54:39.916Z,5.34
2019-03-29T22:57:11.480Z,5.36
2019-03-29T22:59:42.509Z,5.38
2019-03-29T23:02:13.957Z,5.38
2019-03-29T23:04:44.826Z,5.41
2019-03-29T23:07:16.039Z,5.41
2019-03-29T23:09:47.284Z,5.44
2019-03-29T23:12:18.228Z,5.45
2019-03-29T23:14:49.119Z,5.45
2019-03-29T23:17:19.808Z,5.47
2019-03-29T23:19:50.789Z,5.49
2019-03-29T23:22:21.594Z,5.47
2019-03-29T23:24:52.174Z,5.47
2019-03-29T23:27:22.809Z,5.47
2019-03-29T23:29:53.503Z,5.48
2019-03-29T23:32:24.032Z,5.48
2019-03-29T23:34:54.730Z,5.50
2019-03-29T23:37:25.433Z,5.53
2019-03-29T23:39:56.236Z,5.55
2019-03-29T23:42:26.959Z,5.56
2019-03-29T23:44:57.731Z,5.56
2019-03-29T23:47:28.649Z,5.56
2019-03-29T23:49:59.313Z,5.57
2019-03-29T23:52:29.938Z,5.57
2019-03-29T23:55:01.006Z,5.57
2019-03-29T23:57:31.846Z,5.59
